createdAt,value
2018-08-28T00:01:10.680Z,99.90
2018-08-28T00:03:38.685Z,99.90
2018-08-28T00:06:06.706Z,99.90
2018-08-28T00:08:34.754Z,99.90
2018-08-28T00:11:02.807Z,99.90
2018-08-28T00:13:30.807Z,99.90
2018-08-28T00:15:58.862Z,99.90
2018-08-28T00:18:26.929Z,99.90
2018-08-28T00:20:55.013Z,99.90
2018-08-28T00:23:23.052Z,99.90
2018-08-28T00:25:51.061Z,99.90
2018-08-28T00:28:19.107Z,99.90
2018-08-28T00:30:47.133Z,99.90
2018-08-28T00:33:15.387Z,99.90
2018-08-28T00:35:43.461Z,99.90
2018-08-28T00:38:11.503Z,99.90
2018-08-28T00:40:39.608Z,99.90
2018-08-28T00:43:07.627Z,99.90
2018-08-28T00:45:35.625Z,99.90
2018-08-28T00:48:03.653Z,99.90
2018-08-28T00:50:31.716Z,99.90
2018-08-28T00:53:00.111Z,99.90
2018-08-28T00:55:28.117Z,99.90
2018-08-28T00:57:56.112Z,99.90
2018-08-28T01:00:24.166Z,99.90
2018-08-28T01:02:52.171Z,99.90
2018-08-28T01:05:21.085Z,99.90
2018-08-28T01:07:49.124Z,99.90
2018-08-28T01:10:17.129Z,99.90
2018-08-28T01:12:45.137Z,99.90
2018-08-28T01:15:13.190Z,99.90
2018-08-28T01:17:41.185Z,99.90
2018-08-28T01:20:09.482Z,99.90
2018-08-28T01:22:37.729Z,99.90
2018-08-28T01:25:06.278Z,99.90
2018-08-28T01:27:35.537Z,99.90
2018-08-28T01:30:03.571Z,99.90
2018-08-28T01:32:32.109Z,99.90
2018-08-28T01:35:00.403Z,99.90
2018-08-28T01:37:28.397Z,99.90
2018-08-28T01:39:56.781Z,99.90
2018-08-28T01:42:25.475Z,99.90
2018-08-28T01:44:53.481Z,99.90
2018-08-28T01:47:22.199Z,99.90
2018-08-28T01:49:50.911Z,99.90
2018-08-28T01:52:19.285Z,99.90
2018-08-28T01:54:47.533Z,99.90
2018-08-28T01:57:15.620Z,99.90
2018-08-28T01:59:43.659Z,99.90
2018-08-28T02:02:11.737Z,99.90
2018-08-28T02:04:39.869Z,99.90
2018-08-28T02:07:07.914Z,99.90
2018-08-28T02:09:35.957Z,99.90
2018-08-28T02:12:03.953Z,99.90
2018-08-28T02:14:32.005Z,99.90
2018-08-28T02:17:00.042Z,99.90
2018-08-28T02:19:28.058Z,99.90
2018-08-28T02:21:56.109Z,99.90
2018-08-28T02:24:24.137Z,99.90
2018-08-28T02:26:52.404Z,99.90
2018-08-28T02:29:20.518Z,99.90
2018-08-28T02:31:48.582Z,99.90
2018-08-28T02:34:16.586Z,99.90
2018-08-28T02:36:44.666Z,99.90
2018-08-28T02:39:12.704Z,99.90
2018-08-28T02:41:41.237Z,99.90
2018-08-28T02:44:09.293Z,99.90
2018-08-28T02:46:37.845Z,99.90
2018-08-28T02:49:06.218Z,99.90
2018-08-28T02:51:34.550Z,99.90
2018-08-28T02:54:02.580Z,99.90
2018-08-28T02:56:30.670Z,99.90
2018-08-28T02:58:58.720Z,99.90
2018-08-28T03:01:26.972Z,99.90
2018-08-28T03:03:55.010Z,99.90
2018-08-28T03:06:23.509Z,99.90
2018-08-28T03:08:51.613Z,99.90
2018-08-28T03:11:19.685Z,99.90
2018-08-28T03:13:47.765Z,99.90
2018-08-28T03:16:15.809Z,99.90
2018-08-28T03:18:43.860Z,99.90
2018-08-28T03:21:11.913Z,99.90
2018-08-28T03:23:40.241Z,99.90
2018-08-28T03:26:08.694Z,99.90
2018-08-28T03:28:36.701Z,99.90
2018-08-28T03:31:04.757Z,99.90
2018-08-28T03:33:32.761Z,99.90
2018-08-28T03:36:01.094Z,99.90
2018-08-28T03:38:29.133Z,99.90
2018-08-28T03:40:57.429Z,99.90
2018-08-28T03:43:25.443Z,99.90
2018-08-28T03:45:53.577Z,99.90
2018-08-28T03:48:21.638Z,99.90
2018-08-28T03:50:49.648Z,99.90
2018-08-28T03:53:17.646Z,99.90
2018-08-28T03:55:45.682Z,99.90
2018-08-28T03:58:13.724Z,99.90
2018-08-28T04:00:41.773Z,99.90
2018-08-28T04:03:09.842Z,99.90
2018-08-28T04:05:37.887Z,99.90
2018-08-28T04:08:05.974Z,99.90
2018-08-28T04:10:33.982Z,99.90
2018-08-28T04:13:02.097Z,99.90
2018-08-28T04:15:30.145Z,99.90
2018-08-28T04:17:58.186Z,99.90
2018-08-28T04:20:26.189Z,99.90
2018-08-28T04:22:54.248Z,99.90
2018-08-28T04:25:22.258Z,99.90
2018-08-28T04:27:50.266Z,99.90
2018-08-28T04:30:18.340Z,99.90
2018-08-28T04:32:46.357Z,99.90
2018-08-28T04:35:14.423Z,99.90
2018-08-28T04:37:42.837Z,99.90
2018-08-28T04:40:10.845Z,99.90
2018-08-28T04:42:38.852Z,99.90
2018-08-28T04:45:06.986Z,99.90
2018-08-28T04:47:35.036Z,99.90
2018-08-28T04:50:03.033Z,99.90
2018-08-28T04:52:31.045Z,99.90
2018-08-28T04:54:59.403Z,99.90
2018-08-28T04:57:27.461Z,99.90
2018-08-28T04:59:55.502Z,99.90
2018-08-28T05:02:28.735Z,99.90
2018-08-28T05:04:57.093Z,99.90
2018-08-28T05:07:25.099Z,99.90
2018-08-28T05:09:53.214Z,99.90
2018-08-28T05:12:21.217Z,99.90
2018-08-28T05:14:49.217Z,99.90
2018-08-28T05:17:17.738Z,99.90
2018-08-28T05:19:45.741Z,99.90
2018-08-28T05:22:13.740Z,99.90
2018-08-28T05:24:41.866Z,99.90
2018-08-28T05:27:09.910Z,99.90
2018-08-28T05:29:38.092Z,99.90
2018-08-28T05:32:06.228Z,99.90
2018-08-28T05:34:34.229Z,99.90
2018-08-28T05:37:02.247Z,99.90
2018-08-28T05:39:30.281Z,99.90
2018-08-28T05:41:58.355Z,99.90
2018-08-28T05:44:26.442Z,99.90
2018-08-28T05:46:54.550Z,99.90
2018-08-28T05:49:22.636Z,99.90
2018-08-28T05:51:50.639Z,99.90
2018-08-28T05:54:18.667Z,99.90
2018-08-28T05:56:46.713Z,99.90
2018-08-28T05:59:14.849Z,99.90
2018-08-28T06:01:42.854Z,99.90
2018-08-28T06:04:10.906Z,99.90
2018-08-28T06:06:38.949Z,99.90
2018-08-28T06:09:07.809Z,99.90
2018-08-28T06:11:35.850Z,99.90
2018-08-28T06:14:03.850Z,99.90
2018-08-28T06:16:31.887Z,99.90
2018-08-28T06:18:59.949Z,99.90
2018-08-28T06:21:27.998Z,99.90
2018-08-28T06:23:56.042Z,99.90
2018-08-28T06:26:24.205Z,99.90
2018-08-28T06:28:52.197Z,99.90
2018-08-28T06:31:20.552Z,99.90
2018-08-28T06:33:48.651Z,99.90
2018-08-28T06:36:16.640Z,99.90
2018-08-28T06:38:44.758Z,99.90
2018-08-28T06:41:12.701Z,99.90
2018-08-28T06:43:40.789Z,99.90
2018-08-28T06:46:08.850Z,99.90
2018-08-28T06:48:36.841Z,99.90
2018-08-28T06:51:05.573Z,99.90
2018-08-28T06:53:33.572Z,99.90
2018-08-28T06:56:01.595Z,99.90
2018-08-28T06:58:29.633Z,99.90
2018-08-28T07:00:57.657Z,99.90
2018-08-28T07:03:25.702Z,99.90
2018-08-28T07:05:53.697Z,99.90
2018-08-28T07:08:21.823Z,99.90
2018-08-28T07:10:49.900Z,99.90
2018-08-28T07:13:17.981Z,99.90
2018-08-28T07:15:46.077Z,99.90
2018-08-28T07:18:14.129Z,99.90
2018-08-28T07:20:42.236Z,99.90
2018-08-28T07:23:10.240Z,99.90
2018-08-28T07:25:38.494Z,99.90
2018-08-28T07:28:06.465Z,99.90
2018-08-28T07:30:34.557Z,99.70
2018-08-28T07:33:02.558Z,99.90
2018-08-28T07:35:30.833Z,99.90
2018-08-28T07:37:58.918Z,99.10
2018-08-28T07:40:26.924Z,98.60
2018-08-28T07:42:55.039Z,98.60
2018-08-28T07:45:23.001Z,98.30
2018-08-28T07:47:51.357Z,98.20
2018-08-28T07:50:19.374Z,97.70
2018-08-28T07:52:47.376Z,96.90
2018-08-28T07:55:15.429Z,97.00
2018-08-28T07:57:43.413Z,97.30
2018-08-28T08:00:11.424Z,97.60
2018-08-28T08:02:39.465Z,97.80
2018-08-28T08:05:07.492Z,97.40
2018-08-28T08:07:35.578Z,96.90
2018-08-28T08:10:03.570Z,96.90
2018-08-28T08:12:32.002Z,96.10
2018-08-28T08:15:00.014Z,95.70
2018-08-28T08:17:28.042Z,95.80
2018-08-28T08:19:56.181Z,95.90
2018-08-28T08:22:24.218Z,96.20
2018-08-28T08:24:52.576Z,96.00
2018-08-28T08:27:20.569Z,96.50
2018-08-28T08:29:48.788Z,94.90
2018-08-28T08:32:17.178Z,94.50
2018-08-28T08:34:45.270Z,94.30
2018-08-28T08:37:13.330Z,94.30
2018-08-28T08:39:41.367Z,94.60
2018-08-28T08:42:09.465Z,94.90
2018-08-28T08:44:37.421Z,93.10
2018-08-28T08:47:05.539Z,92.20
2018-08-28T08:49:33.568Z,91.70
2018-08-28T08:52:01.605Z,92.40
2018-08-28T08:54:29.618Z,91.80
2018-08-28T08:56:57.651Z,90.80
2018-08-28T08:59:25.689Z,90.80
2018-08-28T09:01:53.697Z,90.30
2018-08-28T09:04:21.738Z,90.30
2018-08-28T09:06:49.741Z,89.40
2018-08-28T09:09:17.742Z,90.60
2018-08-28T09:11:46.071Z,90.80
2018-08-28T09:14:14.145Z,90.40
2018-08-28T09:16:42.180Z,89.40
2018-08-28T09:19:10.246Z,91.20
2018-08-28T09:21:38.213Z,91.70
2018-08-28T09:24:06.324Z,91.80
2018-08-28T09:26:34.341Z,91.10
2018-08-28T09:29:02.381Z,90.60
2018-08-28T09:31:30.394Z,88.80
2018-08-28T09:33:58.398Z,89.70
2018-08-28T09:36:26.753Z,90.20
2018-08-28T09:38:54.803Z,87.20
2018-08-28T09:41:22.753Z,86.70
2018-08-28T09:43:50.850Z,88.70
2018-08-28T09:46:18.889Z,87.90
2018-08-28T09:48:46.976Z,87.70
2018-08-28T09:51:14.970Z,86.30
2018-08-28T09:53:43.140Z,86.90
2018-08-28T09:56:11.137Z,85.60
2018-08-28T09:58:39.443Z,83.20
2018-08-28T10:01:13.080Z,83.40
2018-08-28T10:03:41.372Z,83.70
2018-08-28T10:06:09.374Z,84.70
2018-08-28T10:08:37.790Z,82.70
2018-08-28T10:11:05.937Z,82.30
2018-08-28T10:13:33.869Z,79.70
2018-08-28T10:16:01.926Z,79.40
2018-08-28T10:18:29.979Z,79.20
2018-08-28T10:20:58.063Z,80.90
2018-08-28T10:23:26.385Z,83.20
2018-08-28T10:25:54.524Z,78.80
2018-08-28T10:28:22.521Z,77.80
2018-08-28T10:30:50.533Z,79.80
2018-08-28T10:33:18.834Z,79.80
2018-08-28T10:35:46.836Z,77.20
2018-08-28T10:38:15.124Z,78.80
2018-08-28T10:40:43.085Z,78.80
2018-08-28T10:43:11.193Z,78.20
2018-08-28T10:45:39.194Z,76.80
2018-08-28T10:48:07.445Z,76.90
2018-08-28T10:50:35.490Z,78.30
2018-08-28T10:53:03.584Z,79.50
2018-08-28T10:55:31.589Z,78.60
2018-08-28T10:57:59.584Z,79.90
2018-08-28T11:00:27.621Z,80.40
2018-08-28T11:02:55.622Z,77.50
2018-08-28T11:05:23.669Z,77.40
2018-08-28T11:07:51.778Z,78.30
2018-08-28T11:10:19.825Z,80.20
2018-08-28T11:12:47.869Z,79.20
2018-08-28T11:15:15.877Z,80.80
2018-08-28T11:17:43.892Z,82.70
2018-08-28T11:20:11.921Z,78.00
2018-08-28T11:22:39.980Z,77.00
2018-08-28T11:25:08.046Z,78.10
2018-08-28T11:27:36.076Z,77.00
2018-08-28T11:30:04.091Z,76.40
2018-08-28T11:32:32.129Z,75.40
2018-08-28T11:35:00.150Z,74.20
2018-08-28T11:37:28.244Z,75.50
2018-08-28T11:39:56.501Z,74.80
2018-08-28T11:42:24.541Z,72.60
2018-08-28T11:44:52.585Z,71.80
2018-08-28T11:47:20.702Z,69.40
2018-08-28T11:49:48.774Z,68.90
2018-08-28T11:52:16.774Z,67.90
2018-08-28T11:54:44.782Z,67.70
2018-08-28T11:57:12.790Z,68.00
2018-08-28T11:59:40.878Z,69.60
2018-08-28T12:02:09.107Z,70.50
2018-08-28T12:04:37.086Z,71.60
2018-08-28T12:07:05.395Z,71.80
2018-08-28T12:09:33.358Z,71.70
2018-08-28T12:12:01.401Z,73.80
2018-08-28T12:14:29.414Z,73.80
2018-08-28T12:16:57.454Z,73.70
2018-08-28T12:19:25.485Z,75.10
2018-08-28T12:21:53.626Z,73.00
2018-08-28T12:24:21.705Z,71.80
2018-08-28T12:26:49.805Z,74.30
2018-08-28T12:29:17.824Z,69.60
2018-08-28T12:31:45.839Z,70.50
2018-08-28T12:34:14.127Z,69.80
2018-08-28T12:36:42.245Z,71.80
2018-08-28T12:39:10.213Z,69.10
2018-08-28T12:41:38.305Z,70.50
2018-08-28T12:44:06.480Z,70.50
2018-08-28T12:46:34.427Z,69.90
2018-08-28T12:49:02.421Z,70.10
2018-08-28T12:51:30.587Z,71.50
2018-08-28T12:53:58.573Z,71.50
2018-08-28T12:56:26.582Z,71.60
2018-08-28T12:58:54.679Z,72.90
2018-08-28T13:01:22.669Z,71.70
2018-08-28T13:03:50.674Z,71.00
2018-08-28T13:06:18.722Z,69.80
2018-08-28T13:08:46.731Z,72.00
2018-08-28T13:11:14.727Z,67.40
2018-08-28T13:13:42.764Z,68.30
2018-08-28T13:16:11.062Z,68.10
2018-08-28T13:18:39.070Z,70.10
2018-08-28T13:21:07.069Z,71.30
2018-08-28T13:23:35.209Z,69.40
2018-08-28T13:26:03.388Z,71.00
2018-08-28T13:28:31.848Z,70.00
2018-08-28T13:30:59.862Z,68.40
2018-08-28T13:33:28.271Z,68.20
2018-08-28T13:35:56.406Z,67.30
2018-08-28T13:38:24.445Z,65.50
2018-08-28T13:40:52.470Z,67.50
2018-08-28T13:43:20.471Z,69.90
2018-08-28T13:45:48.469Z,66.10
2018-08-28T13:48:16.504Z,67.30
2018-08-28T13:50:44.748Z,68.20
2018-08-28T13:53:12.829Z,68.50
2018-08-28T13:55:40.842Z,69.20
2018-08-28T13:58:08.874Z,70.60
2018-08-28T14:00:36.907Z,69.80
2018-08-28T14:03:04.933Z,69.80
2018-08-28T14:05:32.961Z,71.00
2018-08-28T14:08:00.974Z,68.50
2018-08-28T14:10:29.017Z,69.20
2018-08-28T14:12:57.102Z,69.00
2018-08-28T14:15:25.101Z,70.50
2018-08-28T14:17:53.390Z,68.00
2018-08-28T14:20:21.393Z,68.40
2018-08-28T14:22:49.533Z,69.40
2018-08-28T14:25:17.567Z,69.30
2018-08-28T14:27:45.577Z,69.60
2018-08-28T14:30:13.613Z,70.30
2018-08-28T14:32:41.653Z,72.40
2018-08-28T14:35:09.665Z,70.90
2018-08-28T14:37:37.682Z,69.60
2018-08-28T14:40:05.871Z,69.70
2018-08-28T14:42:33.980Z,71.00
2018-08-28T14:45:02.550Z,68.10
2018-08-28T14:47:30.557Z,67.40
2018-08-28T14:49:58.607Z,68.00
2018-08-28T14:52:26.876Z,68.40
2018-08-28T14:54:54.939Z,66.30
2018-08-28T14:57:22.933Z,68.50
2018-08-28T14:59:50.969Z,67.80
2018-08-28T15:02:19.016Z,68.00
2018-08-28T15:04:47.050Z,68.40
2018-08-28T15:07:15.049Z,68.80
2018-08-28T15:09:43.097Z,67.20
2018-08-28T15:12:11.140Z,68.00
2018-08-28T15:14:39.204Z,70.10
2018-08-28T15:17:07.328Z,69.70
2018-08-28T15:19:35.625Z,68.20
2018-08-28T15:22:03.633Z,67.40
2018-08-28T15:24:31.646Z,69.00
2018-08-28T15:26:59.736Z,68.70
2018-08-28T15:29:27.748Z,68.90
2018-08-28T15:31:56.606Z,69.00
2018-08-28T15:34:24.689Z,69.40
2018-08-28T15:36:52.789Z,66.00
2018-08-28T15:39:20.794Z,66.70
2018-08-28T15:41:48.794Z,67.80
2018-08-28T15:44:16.834Z,69.00
2018-08-28T15:46:44.846Z,71.00
2018-08-28T15:49:12.898Z,70.60
2018-08-28T15:51:41.036Z,69.90
2018-08-28T15:54:09.045Z,69.50
2018-08-28T15:56:37.046Z,66.20
2018-08-28T15:59:05.324Z,66.60
2018-08-28T16:01:33.258Z,65.00
2018-08-28T16:04:01.267Z,65.80
2018-08-28T16:06:29.381Z,63.50
2018-08-28T16:08:57.465Z,64.40
2018-08-28T16:11:25.609Z,63.60
2018-08-28T16:13:53.637Z,63.20
2018-08-28T16:16:22.024Z,63.50
2018-08-28T16:18:50.035Z,63.30
2018-08-28T16:21:18.046Z,63.60
2018-08-28T16:23:47.880Z,64.50
2018-08-28T16:26:15.901Z,63.00
2018-08-28T16:28:43.936Z,64.70
2018-08-28T16:31:11.986Z,65.00
2018-08-28T16:33:40.003Z,66.10
2018-08-28T16:36:08.061Z,68.60
2018-08-28T16:38:36.110Z,68.50
2018-08-28T16:41:04.216Z,70.30
2018-08-28T16:43:32.247Z,70.40
2018-08-28T16:46:00.373Z,72.80
2018-08-28T16:48:28.472Z,72.80
2018-08-28T16:50:56.650Z,73.60
2018-08-28T16:53:25.028Z,72.70
2018-08-28T16:55:53.076Z,73.20
2018-08-28T16:58:21.105Z,74.00
2018-08-28T17:00:49.190Z,74.60
2018-08-28T17:03:17.624Z,73.80
2018-08-28T17:05:45.686Z,74.80
2018-08-28T17:08:13.757Z,75.20
2018-08-28T17:10:41.798Z,76.40
2018-08-28T17:13:10.123Z,76.60
2018-08-28T17:15:38.136Z,77.00
2018-08-28T17:18:06.154Z,76.70
2018-08-28T17:20:34.201Z,77.50
2018-08-28T17:23:02.252Z,77.40
2018-08-28T17:25:30.325Z,78.10
2018-08-28T17:27:58.372Z,78.60
2018-08-28T17:30:26.447Z,78.50
2018-08-28T17:32:54.449Z,79.40
2018-08-28T17:35:22.462Z,79.00
2018-08-28T17:37:50.549Z,79.00
2018-08-28T17:40:18.629Z,80.00
2018-08-28T17:42:46.832Z,81.50
2018-08-28T17:45:14.693Z,82.00
2018-08-28T17:47:42.745Z,82.90
2018-08-28T17:50:10.966Z,84.10
2018-08-28T17:52:38.969Z,85.30
2018-08-28T17:55:07.262Z,85.50
2018-08-28T17:57:35.257Z,90.10
2018-08-28T18:00:03.309Z,90.80
2018-08-28T18:02:31.367Z,91.10
2018-08-28T18:04:59.409Z,91.90
2018-08-28T18:07:27.477Z,91.90
2018-08-28T18:09:55.503Z,92.90
2018-08-28T18:12:23.678Z,93.20
2018-08-28T18:14:51.685Z,93.80
2018-08-28T18:17:19.758Z,94.30
2018-08-28T18:19:48.079Z,94.60
2018-08-28T18:22:16.166Z,94.70
2018-08-28T18:24:44.214Z,95.50
2018-08-28T18:27:12.388Z,96.20
2018-08-28T18:29:40.522Z,96.40
2018-08-28T18:32:08.610Z,96.80
2018-08-28T18:34:36.669Z,97.20
2018-08-28T18:37:04.886Z,97.50
2018-08-28T18:39:32.916Z,97.90
2018-08-28T18:42:01.152Z,97.60
2018-08-28T18:44:29.230Z,98.30
2018-08-28T18:46:57.365Z,98.60
2018-08-28T18:49:25.398Z,98.60
2018-08-28T18:51:53.561Z,99.00
2018-08-28T18:54:21.869Z,98.70
2018-08-28T18:56:49.889Z,99.10
2018-08-28T18:59:18.245Z,99.60
2018-08-28T19:01:46.249Z,99.90
2018-08-28T19:04:14.253Z,99.90
2018-08-28T19:06:42.294Z,99.90
2018-08-28T19:09:10.402Z,99.90
2018-08-28T19:11:38.773Z,99.90
2018-08-28T19:14:06.994Z,99.90
2018-08-28T19:16:35.002Z,99.90
2018-08-28T19:19:03.053Z,99.90
2018-08-28T19:21:31.080Z,99.90
2018-08-28T19:24:06.061Z,99.90
2018-08-28T19:26:34.107Z,99.90
2018-08-28T19:29:02.166Z,99.90
2018-08-28T19:31:30.180Z,99.90
2018-08-28T19:33:58.196Z,99.90
2018-08-28T19:36:26.369Z,99.90
2018-08-28T19:38:54.369Z,99.90
2018-08-28T19:41:22.405Z,99.90
2018-08-28T19:43:50.866Z,99.90
2018-08-28T19:46:18.969Z,99.90
2018-08-28T19:48:47.045Z,99.90
2018-08-28T19:51:15.113Z,99.90
2018-08-28T19:53:43.159Z,99.90
2018-08-28T19:56:11.496Z,99.90
2018-08-28T19:58:39.679Z,99.90
2018-08-28T20:01:07.758Z,99.90
2018-08-28T20:03:35.756Z,99.90
2018-08-28T20:06:03.813Z,99.90
2018-08-28T20:08:31.882Z,99.90
2018-08-28T20:10:59.906Z,99.90
2018-08-28T20:13:27.945Z,99.90
2018-08-28T20:15:55.961Z,99.90
2018-08-28T20:18:24.005Z,99.90
2018-08-28T20:20:52.461Z,99.90
2018-08-28T20:23:20.413Z,99.90
2018-08-28T20:25:48.441Z,99.90
2018-08-28T20:28:16.505Z,99.90
2018-08-28T20:30:44.570Z,99.90
2018-08-28T20:33:12.645Z,99.90
2018-08-28T20:35:40.689Z,99.90
2018-08-28T20:38:08.781Z,99.90
2018-08-28T20:40:36.806Z,99.90
2018-08-28T20:43:04.822Z,99.90
2018-08-28T20:45:33.278Z,99.90
2018-08-28T20:48:01.286Z,99.90
2018-08-28T20:50:29.302Z,99.90
2018-08-28T20:52:57.359Z,99.90
2018-08-28T20:55:25.361Z,99.90
2018-08-28T20:57:53.412Z,99.90
2018-08-28T21:00:21.416Z,99.90
2018-08-28T21:02:49.510Z,99.90
2018-08-28T21:05:23.018Z,99.90
2018-08-28T21:07:51.082Z,99.90
2018-08-28T21:10:19.509Z,99.90
2018-08-28T21:12:47.615Z,99.90
2018-08-28T21:15:15.602Z,99.90
2018-08-28T21:17:43.645Z,99.90
2018-08-28T21:20:11.697Z,99.90
2018-08-28T21:22:39.722Z,99.90
2018-08-28T21:25:07.746Z,99.90
2018-08-28T21:27:35.752Z,99.90
2018-08-28T21:30:03.809Z,99.90
2018-08-28T21:32:32.091Z,99.90
2018-08-28T21:35:00.304Z,99.90
2018-08-28T21:37:28.358Z,99.90
2018-08-28T21:39:56.392Z,99.90
2018-08-28T21:42:24.414Z,99.90
2018-08-28T21:44:52.590Z,99.90
2018-08-28T21:47:20.629Z,99.90
2018-08-28T21:49:48.644Z,99.90
2018-08-28T21:52:16.713Z,99.90
2018-08-28T21:54:44.753Z,99.90
2018-08-28T21:57:12.769Z,99.90
2018-08-28T21:59:40.813Z,99.90
2018-08-28T22:02:09.084Z,99.90
2018-08-28T22:04:37.091Z,99.90
2018-08-28T22:07:10.767Z,99.90
2018-08-28T22:09:38.842Z,99.90
2018-08-28T22:12:06.921Z,99.90
2018-08-28T22:14:35.321Z,99.90
2018-08-28T22:17:03.522Z,99.90
2018-08-28T22:19:31.546Z,99.90
2018-08-28T22:21:59.896Z,99.90
2018-08-28T22:24:27.928Z,99.90
2018-08-28T22:26:55.933Z,99.90
2018-08-28T22:29:23.960Z,99.90
2018-08-28T22:31:52.006Z,99.90
2018-08-28T22:34:20.054Z,99.90
2018-08-28T22:36:54.609Z,99.90
2018-08-28T22:39:22.670Z,99.90
2018-08-28T22:41:50.677Z,99.90
2018-08-28T22:44:18.847Z,99.90
2018-08-28T22:46:46.847Z,99.90
2018-08-28T22:49:14.899Z,99.90
2018-08-28T22:51:43.073Z,99.90
2018-08-28T22:54:11.095Z,99.90
2018-08-28T22:56:39.101Z,99.90
2018-08-28T22:59:07.154Z,99.90
2018-08-28T23:01:35.256Z,99.90
2018-08-28T23:04:03.237Z,99.90
2018-08-28T23:06:31.285Z,99.90
2018-08-28T23:08:59.365Z,99.90
2018-08-28T23:11:27.380Z,99.90
2018-08-28T23:13:55.409Z,99.90
2018-08-28T23:16:23.454Z,99.90
2018-08-28T23:18:51.502Z,99.90
2018-08-28T23:21:19.553Z,99.90
2018-08-28T23:23:47.558Z,99.90
2018-08-28T23:26:15.576Z,99.90
2018-08-28T23:28:43.613Z,99.90
2018-08-28T23:31:11.623Z,99.90
2018-08-28T23:33:39.623Z,99.90
2018-08-28T23:36:07.685Z,99.90
2018-08-28T23:38:35.697Z,99.90
2018-08-28T23:41:03.868Z,99.90
2018-08-28T23:43:31.877Z,99.90
2018-08-28T23:45:59.885Z,99.90
2018-08-28T23:48:28.013Z,99.90
2018-08-28T23:50:56.026Z,99.90
2018-08-28T23:53:24.081Z,99.90
2018-08-28T23:55:52.122Z,99.90
2018-08-28T23:58:20.186Z,99.90
